Terminal Aerodrome Forecast
Issued by NWS

Home | Current Version | Previous Version | Graphics & Text | Print | Product List | Glossary On
Versions: 1 2 3 4 5 6 7 8 9 10 11 12 13 14 15 16 17 18 19 20 21 22
000
FTUS43 KBIS 230537
TAFJMS
TAF
KJMS 230537Z 2306/2406 15011KT P6SM FEW100 WS020/19040KT
     FM230900 16007KT P6SM FEW150 SCT200 WS020/21040KT
     FM231300 20012KT P6SM FEW150
     FM231700 27016G22KT P6SM FEW040
     FM232000 31015KT P6SM SCT050 SCT150
     FM240200 28008KT P6SM FEW080=

USA.gov is the U.S. government's official web portal to all federal, state and local government web resources and services.